Página principal
METAR-TAF:

METAR-TAF

Aeroportos :

Aeroporto Internacional Rei Abdulaziz

Jidá, Arábia Saudita

latitude: 21-42N, longitude: 039-11E, altura: 15 m

Observação actual do tempo

O boletim foi feito há 13 minutos, às 03:00 UTC
Vento 4 kt de norte
Temperatura 21°C
Humidade 64%
Pressão 1013 hPa
Visibilidade 10 km ou mais
sem nuvens abaixo de 1500 metros e sem cumulonimbus

METAR: OEJN 190300Z 36004KT CAVOK 21/14 Q1013 NOSIG

Hora: 06:13 (03:13 UTC)

Previsão

O boletim foi feito há 4 horas e 13 minutos, às 23:00 UTC
Previsão válida de 19 às 00 UTC a 20 às 06 UTC
Vento 10 kt de nor-nordeste
Visibilidade 10 km ou mais
sem nuvens abaixo de 1500 metros e sem cumulonimbus
Tornando-se
de 19 às 06 UTC a 19 às 08 UTC
Vento 15 kt de norte

TAF: OEJN 182300Z 1900/2006 02010KT CAVOK BECMG 1906/1908 35015KT

Observações e previsões do tempo de mais de 4000 aeroportos (mensagens METAR e TAF).

As estações disponíveis são os pontos amarelos e vermelhos sobre o mapa.

Mova o rato sobre o mapa para ver o nome da estação.

Depois clique no ponto para visualizar as observações e previsões meteorológicas.

Para alterar o mapa : clique nos botões verdes com uma cruz preta para aumentar o zoom; no botão verde com uma pitada de zoom; ou nas setas verdes para mapas adjacentes.


METAR-TAF: